Terminal Aerodrome Forecast
Issued by NWS

Home | Current Version | Previous Version | Text Only | Print | Product List | Glossary On
Versions: 1 2 3 4 5 6 7 8 9 10 11 12 13 14 15 16 17 18 19 20
000
FTUS41 KBOX 192322
TAFBED
TAF
KBED 192322Z 2000/2024 27011G26KT P6SM SCT045
     FM200600 26012KT P6SM SCT250
     FM201400 28018G32KT P6SM BKN060
     FM202200 27011G22KT P6SM SCT060=

USA.gov is the U.S. government's official web portal to all federal, state and local government web resources and services.